sensor_id;sensor_type;location;lat;lon;timestamp;P1;durP1;ratioP1;P2;durP2;ratioP2
1054;SDS011;516;51.482;7.120;2023-03-08T00:03:27;30.47;;;16.77;;
1054;SDS011;516;51.482;7.120;2023-03-08T00:09:15;31.87;;;18.47;;
1054;SDS011;516;51.482;7.120;2023-03-08T00:21:33;35.10;;;20.37;;
1054;SDS011;516;51.482;7.120;2023-03-08T00:28:18;30.63;;;20.00;;
1054;SDS011;516;51.482;7.120;2023-03-08T00:34:50;30.97;;;20.20;;
1054;SDS011;516;51.482;7.120;2023-03-08T00:41:44;31.30;;;20.10;;
1054;SDS011;516;51.482;7.120;2023-03-08T00:47:31;30.10;;;18.83;;
1054;SDS011;516;51.482;7.120;2023-03-08T00:53:21;35.00;;;22.07;;
1054;SDS011;516;51.482;7.120;2023-03-08T01:08:23;27.80;;;18.13;;
1054;SDS011;516;51.482;7.120;2023-03-08T01:14:11;28.67;;;18.90;;
1054;SDS011;516;51.482;7.120;2023-03-08T01:19:58;29.73;;;20.00;;
1054;SDS011;516;51.482;7.120;2023-03-08T01:25:46;28.43;;;17.83;;
1054;SDS011;516;51.482;7.120;2023-03-08T01:31:34;31.30;;;20.37;;
1054;SDS011;516;51.482;7.120;2023-03-08T01:37:22;33.40;;;20.50;;
1054;SDS011;516;51.482;7.120;2023-03-08T01:43:43;34.63;;;20.83;;
1054;SDS011;516;51.482;7.120;2023-03-08T02:03:08;35.57;;;19.57;;
1054;SDS011;516;51.482;7.120;2023-03-08T02:08:57;33.27;;;20.57;;
1054;SDS011;516;51.482;7.120;2023-03-08T02:14:49;28.07;;;19.67;;
1054;SDS011;516;51.482;7.120;2023-03-08T02:20:38;27.13;;;19.70;;
1054;SDS011;516;51.482;7.120;2023-03-08T02:26:26;27.43;;;18.63;;
1054;SDS011;516;51.482;7.120;2023-03-08T02:32:14;27.03;;;18.80;;
1054;SDS011;516;51.482;7.120;2023-03-08T02:38:02;34.90;;;21.33;;
1054;SDS011;516;51.482;7.120;2023-03-08T02:43:50;31.90;;;22.63;;
1054;SDS011;516;51.482;7.120;2023-03-08T02:49:37;38.13;;;21.93;;
1054;SDS011;516;51.482;7.120;2023-03-08T02:55:25;34.33;;;20.93;;
1054;SDS011;516;51.482;7.120;2023-03-08T03:01:02;35.20;;;22.90;;
1054;SDS011;516;51.482;7.120;2023-03-08T03:06:50;28.50;;;19.40;;
1054;SDS011;516;51.482;7.120;2023-03-08T03:12:38;27.93;;;18.37;;
1054;SDS011;516;51.482;7.120;2023-03-08T03:18:26;28.17;;;18.13;;
1054;SDS011;516;51.482;7.120;2023-03-08T03:24:14;25.13;;;18.10;;
1054;SDS011;516;51.482;7.120;2023-03-08T03:30:01;21.17;;;14.97;;
1054;SDS011;516;51.482;7.120;2023-03-08T03:35:49;28.13;;;18.57;;
1054;SDS011;516;51.482;7.120;2023-03-08T03:41:37;22.70;;;15.97;;
1054;SDS011;516;51.482;7.120;2023-03-08T03:47:25;25.43;;;17.70;;
1054;SDS011;516;51.482;7.120;2023-03-08T03:53:13;23.53;;;15.70;;
1054;SDS011;516;51.482;7.120;2023-03-08T04:09:05;24.57;;;17.30;;
1054;SDS011;516;51.482;7.120;2023-03-08T04:15:39;27.90;;;18.20;;
1054;SDS011;516;51.482;7.120;2023-03-08T04:21:26;26.13;;;17.60;;
1054;SDS011;516;51.482;7.120;2023-03-08T04:27:14;28.63;;;19.17;;
1054;SDS011;516;51.482;7.120;2023-03-08T04:33:01;27.77;;;18.97;;
1054;SDS011;516;51.482;7.120;2023-03-08T04:38:48;28.37;;;18.73;;
1054;SDS011;516;51.482;7.120;2023-03-08T04:44:36;27.80;;;19.67;;
1054;SDS011;516;51.482;7.120;2023-03-08T04:50:23;21.00;;;16.20;;
1054;SDS011;516;51.482;7.120;2023-03-08T04:56:11;29.73;;;16.00;;
1054;SDS011;516;51.482;7.120;2023-03-08T05:05:22;29.10;;;17.90;;
1054;SDS011;516;51.482;7.120;2023-03-08T05:11:14;25.50;;;15.60;;
1054;SDS011;516;51.482;7.120;2023-03-08T05:17:25;29.70;;;17.63;;
1054;SDS011;516;51.482;7.120;2023-03-08T05:23:13;21.43;;;14.90;;
1054;SDS011;516;51.482;7.120;2023-03-08T05:29:01;25.00;;;18.50;;
1054;SDS011;516;51.482;7.120;2023-03-08T05:34:52;22.63;;;16.63;;
1054;SDS011;516;51.482;7.120;2023-03-08T05:40:40;28.93;;;17.13;;
1054;SDS011;516;51.482;7.120;2023-03-08T05:46:27;25.60;;;15.37;;
1054;SDS011;516;51.482;7.120;2023-03-08T05:52:15;29.33;;;16.97;;
1054;SDS011;516;51.482;7.120;2023-03-08T05:58:03;22.63;;;16.07;;
1054;SDS011;516;51.482;7.120;2023-03-08T06:03:51;27.47;;;17.00;;
1054;SDS011;516;51.482;7.120;2023-03-08T06:09:41;29.33;;;16.93;;
1054;SDS011;516;51.482;7.120;2023-03-08T06:15:29;25.00;;;11.73;;
1054;SDS011;516;51.482;7.120;2023-03-08T06:21:17;14.20;;;10.83;;
1054;SDS011;516;51.482;7.120;2023-03-08T06:27:07;19.60;;;10.80;;
1054;SDS011;516;51.482;7.120;2023-03-08T06:32:55;15.37;;;10.17;;
1054;SDS011;516;51.482;7.120;2023-03-08T06:38:42;23.50;;;12.23;;
1054;SDS011;516;51.482;7.120;2023-03-08T06:44:30;11.30;;;8.40;;
1054;SDS011;516;51.482;7.120;2023-03-08T06:50:18;18.00;;;10.10;;
1054;SDS011;516;51.482;7.120;2023-03-08T06:56:07;16.47;;;9.33;;
1054;SDS011;516;51.482;7.120;2023-03-08T07:01:58;10.80;;;7.10;;
1054;SDS011;516;51.482;7.120;2023-03-08T07:07:46;9.97;;;6.53;;
1054;SDS011;516;51.482;7.120;2023-03-08T07:13:34;7.27;;;5.90;;
1054;SDS011;516;51.482;7.120;2023-03-08T07:19:22;11.37;;;5.43;;
1054;SDS011;516;51.482;7.120;2023-03-08T07:25:11;12.40;;;6.90;;
1054;SDS011;516;51.482;7.120;2023-03-08T07:31:02;10.03;;;6.60;;
1054;SDS011;516;51.482;7.120;2023-03-08T07:36:26;7.73;;;5.43;;
1054;SDS011;516;51.482;7.120;2023-03-08T07:42:13;5.47;;;4.70;;
1054;SDS011;516;51.482;7.120;2023-03-08T07:48:01;7.70;;;5.67;;
1054;SDS011;516;51.482;7.120;2023-03-08T07:53:50;8.93;;;5.30;;
1054;SDS011;516;51.482;7.120;2023-03-08T07:59:38;6.73;;;3.43;;
1054;SDS011;516;51.482;7.120;2023-03-08T08:08:55;5.30;;;3.50;;
1054;SDS011;516;51.482;7.120;2023-03-08T08:14:42;7.73;;;6.03;;
1054;SDS011;516;51.482;7.120;2023-03-08T08:20:30;5.43;;;3.90;;
1054;SDS011;516;51.482;7.120;2023-03-08T08:26:19;4.20;;;3.80;;
1054;SDS011;516;51.482;7.120;2023-03-08T08:32:08;4.30;;;2.60;;
1054;SDS011;516;51.482;7.120;2023-03-08T08:37:56;5.70;;;3.47;;
1054;SDS011;516;51.482;7.120;2023-03-08T08:43:44;7.60;;;3.40;;
1054;SDS011;516;51.482;7.120;2023-03-08T08:49:32;3.20;;;2.87;;
1054;SDS011;516;51.482;7.120;2023-03-08T08:55:20;6.20;;;3.20;;
1054;SDS011;516;51.482;7.120;2023-03-08T09:01:15;6.87;;;4.37;;
1054;SDS011;516;51.482;7.120;2023-03-08T09:06:48;8.57;;;4.40;;
1054;SDS011;516;51.482;7.120;2023-03-08T09:12:35;5.03;;;4.30;;
1054;SDS011;516;51.482;7.120;2023-03-08T09:18:23;11.60;;;4.90;;
1054;SDS011;516;51.482;7.120;2023-03-08T09:24:11;8.40;;;4.83;;
1054;SDS011;516;51.482;7.120;2023-03-08T09:29:59;6.10;;;4.60;;
1054;SDS011;516;51.482;7.120;2023-03-08T09:35:54;5.27;;;4.47;;
1054;SDS011;516;51.482;7.120;2023-03-08T09:48:39;7.30;;;4.00;;
1054;SDS011;516;51.482;7.120;2023-03-08T09:54:29;5.57;;;4.20;;
1054;SDS011;516;51.482;7.120;2023-03-08T10:00:28;8.17;;;5.00;;
1054;SDS011;516;51.482;7.120;2023-03-08T10:06:56;5.07;;;4.57;;
1054;SDS011;516;51.482;7.120;2023-03-08T10:13:27;5.70;;;5.00;;
1054;SDS011;516;51.482;7.120;2023-03-08T10:19:39;6.73;;;5.73;;
1054;SDS011;516;51.482;7.120;2023-03-08T10:25:32;6.20;;;4.90;;
1054;SDS011;516;51.482;7.120;2023-03-08T10:31:25;5.67;;;5.07;;
1054;SDS011;516;51.482;7.120;2023-03-08T10:37:14;6.83;;;5.47;;
1054;SDS011;516;51.482;7.120;2023-03-08T10:43:03;28.53;;;17.53;;
1054;SDS011;516;51.482;7.120;2023-03-08T10:48:52;6.90;;;5.80;;
1054;SDS011;516;51.482;7.120;2023-03-08T10:54:40;7.70;;;6.20;;
1054;SDS011;516;51.482;7.120;2023-03-08T11:09:45;6.43;;;5.57;;
1054;SDS011;516;51.482;7.120;2023-03-08T11:15:33;5.80;;;5.00;;
1054;SDS011;516;51.482;7.120;2023-03-08T11:21:32;6.10;;;5.50;;
1054;SDS011;516;51.482;7.120;2023-03-08T11:44:21;6.10;;;5.23;;
1054;SDS011;516;51.482;7.120;2023-03-08T11:54:16;6.17;;;5.63;;
1054;SDS011;516;51.482;7.120;2023-03-08T12:00:40;5.93;;;5.40;;
1054;SDS011;516;51.482;7.120;2023-03-08T12:09:57;6.63;;;6.03;;
1054;SDS011;516;51.482;7.120;2023-03-08T12:16:24;6.70;;;6.10;;
1054;SDS011;516;51.482;7.120;2023-03-08T12:28:57;7.77;;;7.00;;
1054;SDS011;516;51.482;7.120;2023-03-08T12:34:58;8.33;;;7.53;;
1054;SDS011;516;51.482;7.120;2023-03-08T12:41:24;7.60;;;6.80;;
1054;SDS011;516;51.482;7.120;2023-03-08T12:47:21;8.07;;;7.27;;
1054;SDS011;516;51.482;7.120;2023-03-08T13:00:03;7.43;;;6.70;;
1054;SDS011;516;51.482;7.120;2023-03-08T13:21:06;11.00;;;9.20;;
1054;SDS011;516;51.482;7.120;2023-03-08T13:33:38;9.63;;;7.83;;
1054;SDS011;516;51.482;7.120;2023-03-08T13:40:14;7.87;;;6.77;;
1054;SDS011;516;51.482;7.120;2023-03-08T13:46:04;10.17;;;7.53;;
1054;SDS011;516;51.482;7.120;2023-03-08T13:51:58;9.83;;;8.90;;
1054;SDS011;516;51.482;7.120;2023-03-08T13:57:47;11.93;;;9.60;;
1054;SDS011;516;51.482;7.120;2023-03-08T14:03:38;12.00;;;9.90;;
1054;SDS011;516;51.482;7.120;2023-03-08T14:12:47;9.93;;;8.43;;
1054;SDS011;516;51.482;7.120;2023-03-08T14:18:36;11.33;;;9.07;;
1054;SDS011;516;51.482;7.120;2023-03-08T14:24:30;11.80;;;9.47;;
1054;SDS011;516;51.482;7.120;2023-03-08T14:30:21;11.47;;;9.67;;
1054;SDS011;516;51.482;7.120;2023-03-08T14:36:54;13.00;;;10.57;;
1054;SDS011;516;51.482;7.120;2023-03-08T14:42:47;13.90;;;11.30;;
1054;SDS011;516;51.482;7.120;2023-03-08T14:48:38;15.20;;;11.80;;
1054;SDS011;516;51.482;7.120;2023-03-08T14:54:32;14.43;;;11.90;;
1054;SDS011;516;51.482;7.120;2023-03-08T15:00:22;14.70;;;12.90;;
1054;SDS011;516;51.482;7.120;2023-03-08T15:06:11;14.10;;;11.73;;
1054;SDS011;516;51.482;7.120;2023-03-08T15:15:25;16.20;;;12.43;;
1054;SDS011;516;51.482;7.120;2023-03-08T15:21:13;14.50;;;12.20;;
1054;SDS011;516;51.482;7.120;2023-03-08T15:27:28;14.73;;;11.37;;
1054;SDS011;516;51.482;7.120;2023-03-08T15:33:17;15.93;;;13.10;;
1054;SDS011;516;51.482;7.120;2023-03-08T15:39:05;18.30;;;14.13;;
1054;SDS011;516;51.482;7.120;2023-03-08T15:44:55;19.03;;;11.87;;
1054;SDS011;516;51.482;7.120;2023-03-08T15:50:43;14.70;;;12.83;;
1054;SDS011;516;51.482;7.120;2023-03-08T15:56:31;23.67;;;13.37;;
1054;SDS011;516;51.482;7.120;2023-03-08T16:02:19;18.47;;;15.00;;
1054;SDS011;516;51.482;7.120;2023-03-08T16:08:07;16.20;;;13.60;;
1054;SDS011;516;51.482;7.120;2023-03-08T16:10:45;20.00;;;15.33;;
1054;SDS011;516;51.482;7.120;2023-03-08T16:13:10;17.00;;;13.93;;
1054;SDS011;516;51.482;7.120;2023-03-08T16:18:58;14.47;;;11.53;;
1054;SDS011;516;51.482;7.120;2023-03-08T16:24:46;16.17;;;12.23;;
1054;SDS011;516;51.482;7.120;2023-03-08T16:30:34;17.03;;;11.03;;
1054;SDS011;516;51.482;7.120;2023-03-08T16:36:21;16.93;;;12.60;;
1054;SDS011;516;51.482;7.120;2023-03-08T16:42:12;14.93;;;11.13;;
1054;SDS011;516;51.482;7.120;2023-03-08T16:48:00;11.47;;;9.80;;
1054;SDS011;516;51.482;7.120;2023-03-08T16:53:49;13.30;;;9.87;;
1054;SDS011;516;51.482;7.120;2023-03-08T16:59:37;15.43;;;11.30;;
1054;SDS011;516;51.482;7.120;2023-03-08T17:05:28;16.00;;;12.20;;
1054;SDS011;516;51.482;7.120;2023-03-08T17:21:38;43.73;;;17.50;;
1054;SDS011;516;51.482;7.120;2023-03-08T17:27:25;25.90;;;17.37;;
1054;SDS011;516;51.482;7.120;2023-03-08T17:33:12;26.33;;;18.07;;
1054;SDS011;516;51.482;7.120;2023-03-08T17:39:00;26.10;;;17.23;;
1054;SDS011;516;51.482;7.120;2023-03-08T17:44:47;29.20;;;19.97;;
1054;SDS011;516;51.482;7.120;2023-03-08T17:50:34;30.80;;;17.80;;
1054;SDS011;516;51.482;7.120;2023-03-08T17:56:24;29.10;;;20.20;;
1054;SDS011;516;51.482;7.120;2023-03-08T18:02:15;32.07;;;21.00;;
1054;SDS011;516;51.482;7.120;2023-03-08T18:08:03;31.23;;;20.47;;
1054;SDS011;516;51.482;7.120;2023-03-08T18:14:11;27.90;;;19.23;;
1054;SDS011;516;51.482;7.120;2023-03-08T18:20:00;33.37;;;22.13;;
1054;SDS011;516;51.482;7.120;2023-03-08T18:25:50;35.27;;;21.43;;
1054;SDS011;516;51.482;7.120;2023-03-08T18:31:38;32.20;;;22.40;;
1054;SDS011;516;51.482;7.120;2023-03-08T18:37:26;36.97;;;22.87;;
1054;SDS011;516;51.482;7.120;2023-03-08T18:43:15;33.43;;;21.37;;
1054;SDS011;516;51.482;7.120;2023-03-08T18:49:03;34.80;;;22.90;;
1054;SDS011;516;51.482;7.120;2023-03-08T18:54:56;35.17;;;23.73;;
1054;SDS011;516;51.482;7.120;2023-03-08T19:00:44;34.13;;;24.07;;
1054;SDS011;516;51.482;7.120;2023-03-08T19:06:31;35.60;;;23.17;;
1054;SDS011;516;51.482;7.120;2023-03-08T19:15:42;35.97;;;22.93;;
1054;SDS011;516;51.482;7.120;2023-03-08T19:21:31;39.83;;;25.80;;
1054;SDS011;516;51.482;7.120;2023-03-08T19:27:20;39.03;;;23.60;;
1054;SDS011;516;51.482;7.120;2023-03-08T19:33:08;38.93;;;27.67;;
1054;SDS011;516;51.482;7.120;2023-03-08T19:38:56;34.47;;;23.40;;
1054;SDS011;516;51.482;7.120;2023-03-08T19:44:43;36.07;;;24.43;;
1054;SDS011;516;51.482;7.120;2023-03-08T19:50:34;38.20;;;24.13;;
1054;SDS011;516;51.482;7.120;2023-03-08T19:56:22;37.20;;;23.73;;
1054;SDS011;516;51.482;7.120;2023-03-08T20:02:11;39.83;;;24.17;;
1054;SDS011;516;51.482;7.120;2023-03-08T20:07:59;37.40;;;23.73;;
1054;SDS011;516;51.482;7.120;2023-03-08T20:13:47;46.33;;;23.60;;
1054;SDS011;516;51.482;7.120;2023-03-08T20:22:57;38.13;;;24.60;;
1054;SDS011;516;51.482;7.120;2023-03-08T20:28:45;38.47;;;24.27;;
1054;SDS011;516;51.482;7.120;2023-03-08T20:34:33;35.30;;;22.97;;
1054;SDS011;516;51.482;7.120;2023-03-08T20:40:21;43.37;;;27.70;;
1054;SDS011;516;51.482;7.120;2023-03-08T20:46:10;39.23;;;24.97;;
1054;SDS011;516;51.482;7.120;2023-03-08T20:51:59;39.13;;;26.47;;
1054;SDS011;516;51.482;7.120;2023-03-08T20:57:47;41.57;;;26.90;;
1054;SDS011;516;51.482;7.120;2023-03-08T21:03:38;43.57;;;26.37;;
1054;SDS011;516;51.482;7.120;2023-03-08T21:09:26;43.40;;;26.17;;
1054;SDS011;516;51.482;7.120;2023-03-08T21:15:14;48.37;;;27.13;;
1054;SDS011;516;51.482;7.120;2023-03-08T21:20:45;43.40;;;29.23;;
1054;SDS011;516;51.482;7.120;2023-03-08T21:26:33;42.97;;;25.93;;
1054;SDS011;516;51.482;7.120;2023-03-08T21:32:21;44.17;;;27.13;;
1054;SDS011;516;51.482;7.120;2023-03-08T21:38:08;43.50;;;25.20;;
1054;SDS011;516;51.482;7.120;2023-03-08T21:43:56;41.77;;;24.90;;
1054;SDS011;516;51.482;7.120;2023-03-08T21:49:45;38.33;;;24.63;;
1054;SDS011;516;51.482;7.120;2023-03-08T21:55:33;36.17;;;22.97;;
1054;SDS011;516;51.482;7.120;2023-03-08T22:01:22;34.83;;;22.63;;
1054;SDS011;516;51.482;7.120;2023-03-08T22:07:11;30.60;;;21.73;;
1054;SDS011;516;51.482;7.120;2023-03-08T22:12:59;31.97;;;22.60;;
1054;SDS011;516;51.482;7.120;2023-03-08T22:28:43;33.50;;;21.23;;
1054;SDS011;516;51.482;7.120;2023-03-08T22:34:31;30.80;;;20.70;;
1054;SDS011;516;51.482;7.120;2023-03-08T22:40:19;35.80;;;22.00;;
1054;SDS011;516;51.482;7.120;2023-03-08T22:46:11;33.23;;;21.10;;
1054;SDS011;516;51.482;7.120;2023-03-08T22:52:02;28.43;;;18.00;;
1054;SDS011;516;51.482;7.120;2023-03-08T22:57:50;30.37;;;21.17;;
1054;SDS011;516;51.482;7.120;2023-03-08T23:03:38;28.33;;;18.43;;
1054;SDS011;516;51.482;7.120;2023-03-08T23:09:26;32.80;;;20.47;;
1054;SDS011;516;51.482;7.120;2023-03-08T23:15:13;28.07;;;17.20;;
1054;SDS011;516;51.482;7.120;2023-03-08T23:20:50;25.00;;;17.60;;
1054;SDS011;516;51.482;7.120;2023-03-08T23:26:37;29.30;;;18.80;;
1054;SDS011;516;51.482;7.120;2023-03-08T23:32:25;32.63;;;20.30;;
1054;SDS011;516;51.482;7.120;2023-03-08T23:38:13;31.10;;;19.77;;
1054;SDS011;516;51.482;7.120;2023-03-08T23:44:01;29.53;;;17.87;;
1054;SDS011;516;51.482;7.120;2023-03-08T23:49:49;30.33;;;19.90;;
1054;SDS011;516;51.482;7.120;2023-03-08T23:55:38;31.10;;;19.33;;
